LiveATC.Net - Listen to live air traffic control over the Internet!


ICAO: YGLA  IATA: GLT   Airport: Gladstone Airport
City: Gladstone   State/Province: Queensland
Country: Australia   Continent: Oceania
YGLA METAR Weather: YGLA 010654Z AUTO 17015G27KT 9999 // BKN049 OVC058 22/14 Q1004
YGLA ADS-B Flight Tracking (ADSBExchange)
YGLA Flight Activity (FlightAware)

YGLA CTAF
Feed Status: DOWN
Last heard on: 2022-08-07 00:32:24 (116 days 6 hours 57 minutes ago)
Archive Access: YGLA CTAF
FacilityFrequency
Gladstone CTF/Multicom118.800

NOTICE

Unauthorized use prohibited. See LiveATC.net Terms of Service


Airport/ARTCC Code
Frequency Search
(e.g., 124.400, 128.75)
Site-wide search
 


Browse Feeds
Top 50 Feeds
HF Oceanic Feeds
Coverage Map
Bad Weather Areas

LiveATC FAQ
Offer LiveATC feed
Contact LiveATC.net
Press Inquiries

LiveATC on iPhone
LiveATC on Android

LiveATC Mobile
(Mobile browser)

ATC Audio Archives
Interesting Recordings

LiveATC Forums


Home Page
About LiveATC.net


Terms of Use
Privacy Policy

AIRMETs/SIGMETs

FAA Airport Status
NAS Status
Arrival Demand


Server Software By:
Icecast.org
Liquidsoap